Главная страница
METAR-TAF:

METAR-TAF

Аэропорты :

Либревиль, Габон

широта: 00-27N, долгота: 009-25E, высота над уровнем моря: 12 м

Текущие метеонаблюдения

Эта сводка был подготовлена 15 минут назад, в 22:30 UTC
Ветер 7 Узел от юго-западный, изменяющийся между южный-юго-западный и западный
Температура 26°C
Влажность 79%
Давление 1016 hPa
Видимость 10 км и более
небольшая облачность на высоте 1700 фута

METAR: FOOL 222230Z 22007KT 200V260 9999 FEW017 26/22 Q1016 NOSIG

Время: 23:45 (22:45 UTC)

Прогноз

Эта сводка был подготовлена 5 часа и 45 минут назад, в 17:00 UTC
Прогноз действительный с 22-го 18 UTC до 23-го 24 UTC
Ветер 7 Узел от западный-юго-западный
Видимость 10 км и более
Отдельные облака на высоте 1000 фута

TAF: FOOL 221700Z 2218/2324 24007KT 9999 SCT010

Метеонаблюдения и прогнозы для более 4000 аэропортов (сводки METAR и TAF).

Имеющиеся станции представлены на карте желтыми и красными точками.

Чтобы увидеть название станции, наведите на нее мышь.

Затем щелкните, чтобы увидеть метеонаблюдения и метеопрогнозы.

Управление картой: чтобы увеличить масштаб, щелкните зеленые кнопки с черным крестиком; чтобы уменьшить масштаб, щелкните зеленую кнопку с тире; для просмотра соседних карт щелкайте зеленые стрелки.


METAR-TAF: